Time;durP1;ratioP1;P1;durP2;ratioP2;P2;SDS_P1;SDS_P2;PMS_P1;PMS_P2;Temp;Humidity;BMP_temperature;BMP_pressure;BME280_temperature;BME280_humidity;BME280_pressure;Samples;Min_cycle;Max_cycle;Signal;HPM_P1;HPM_P2
2024/01/25 00:01:57;;;;;;;1.45;1.35;;;8.80;99.90;;;;;;5156862;27;20049;-70
2024/01/25 00:04:22;;;;;;;0.95;0.90;;;8.70;99.90;;;;;;5157332;27;20039;-69
2024/01/25 00:06:48;;;;;;;0.80;0.80;;;7.90;99.90;;;;;;5156854;27;20375;-69
2024/01/25 00:09:14;;;;;;;1.33;1.23;;;7.90;99.90;;;;;;5138491;27;20042;-69
2024/01/25 00:11:39;;;;;;;0.90;0.90;;;8.80;99.90;;;;;;5156962;27;20052;-69
2024/01/25 00:14:05;;;;;;;5.63;2.70;;;7.90;99.90;;;;;;5156065;27;20475;-70
2024/01/25 00:16:30;;;;;;;0.85;0.85;;;7.90;99.90;;;;;;5156347;27;20078;-69
2024/01/25 00:18:56;;;;;;;0.80;0.80;;;7.90;99.90;;;;;;5156736;27;20095;-69
2024/01/25 00:21:21;;;;;;;0.80;0.80;;;7.80;99.90;;;;;;5156586;27;20505;-69
2024/01/25 00:23:47;;;;;;;0.88;0.88;;;8.30;99.90;;;;;;5156433;27;20390;-69
2024/01/25 00:26:13;;;;;;;0.90;0.90;;;8.60;99.90;;;;;;5138598;27;20084;-69
2024/01/25 00:28:38;;;;;;;0.80;0.80;;;7.80;99.90;;;;;;5156287;27;20125;-69
2024/01/25 00:31:04;;;;;;;0.95;0.95;;;7.80;99.90;;;;;;5156123;27;20042;-69
2024/01/25 00:33:30;;;;;;;0.80;0.80;;;7.80;99.90;;;;;;5156229;27;20121;-70
2024/01/25 00:35:55;;;;;;;0.90;0.90;;;7.80;99.90;;;;;;5156160;27;20046;-70
2024/01/25 00:38:21;;;;;;;0.80;0.80;;;7.80;99.90;;;;;;5155980;27;20039;-69
2024/01/25 00:40:47;;;;;;;1.90;1.80;;;7.80;99.90;;;;;;5156125;27;20043;-69
2024/01/25 00:43:14;;;;;;;0.90;0.90;;;7.80;99.90;;;;;;5156200;27;20045;-69
2024/01/25 00:45:39;;;;;;;0.90;0.90;;;7.80;99.90;;;;;;5156042;27;20091;-69
2024/01/25 00:48:05;;;;;;;0.90;0.90;;;7.70;99.90;;;;;;5137770;27;20474;-69
2024/01/25 00:50:31;;;;;;;0.80;0.80;;;7.80;99.90;;;;;;5155595;27;20042;-70
2024/01/25 00:52:57;;;;;;;0.85;0.85;;;7.70;99.90;;;;;;5156006;27;20042;-69
2024/01/25 00:55:23;;;;;;;0.90;0.90;;;7.70;99.90;;;;;;5155783;27;20469;-69
2024/01/25 00:57:49;;;;;;;1.65;1.55;;;7.60;99.90;;;;;;5155828;27;20130;-70
2024/01/25 01:00:15;;;;;;;0.80;0.80;;;7.60;99.90;;;;;;5155782;27;20038;-69
2024/01/25 01:02:45;;;;;;;1.10;1.00;;;7.60;99.90;;;;;;5155681;27;20114;-69
2024/01/25 01:05:14;;;;;;;0.90;0.90;;;7.60;99.90;;;;;;5155756;27;20054;-71
2024/01/25 01:07:43;;;;;;;1.27;1.17;;;7.60;99.90;;;;;;5156500;27;20133;-69
2024/01/25 01:10:09;;;;;;;0.90;0.90;;;7.50;99.90;;;;;;5155620;27;20058;-69
2024/01/25 01:12:35;;;;;;;3.00;2.72;;;7.50;99.90;;;;;;5155597;27;20053;-69
2024/01/25 01:15:00;;;;;;;0.90;0.90;;;7.40;99.90;;;;;;5155570;27;20034;-69
2024/01/25 01:17:27;;;;;;;0.90;0.90;;;7.80;99.90;;;;;;5155507;27;20047;-70
2024/01/25 01:19:52;;;;;;;9.05;1.10;;;7.40;99.90;;;;;;5155570;27;20065;-69
2024/01/25 01:22:18;;;;;;;0.90;0.90;;;7.50;99.90;;;;;;5155421;27;20509;-70
2024/01/25 01:24:43;;;;;;;0.85;0.85;;;7.80;99.90;;;;;;5155492;27;20041;-70
2024/01/25 01:27:09;;;;;;;0.90;0.90;;;7.30;99.90;;;;;;5155457;27;20050;-69
2024/01/25 01:29:35;;;;;;;0.85;0.85;;;7.40;99.90;;;;;;5155111;27;20039;-70
2024/01/25 01:32:00;;;;;;;0.80;0.80;;;7.20;99.90;;;;;;5155389;27;20448;-69
2024/01/25 01:34:26;;;;;;;0.90;0.90;;;7.20;99.90;;;;;;5155775;27;20042;-69
2024/01/25 01:36:52;;;;;;;1.10;1.00;;;7.20;99.90;;;;;;5155176;27;20035;-69
2024/01/25 01:39:17;;;;;;;0.95;0.95;;;7.30;99.90;;;;;;5155342;27;20042;-69
2024/01/25 01:41:48;;;;;;;1.20;1.10;;;7.10;99.90;;;;;;5155347;27;20493;-69
2024/01/25 01:44:14;;;;;;;0.90;0.90;;;7.50;99.90;;;;;;5155243;27;20060;-69
2024/01/25 01:46:40;;;;;;;0.90;0.90;;;7.50;99.90;;;;;;5155383;27;20117;-69
2024/01/25 01:49:08;;;;;;;0.90;0.90;;;7.00;99.90;;;;;;5155180;27;20049;-70
2024/01/25 01:51:34;;;;;;;2.83;2.25;;;7.00;99.90;;;;;;5136746;27;20146;-69
2024/01/25 01:54:05;;;;;;;0.90;0.90;;;7.00;99.90;;;;;;5155771;27;20060;-69
2024/01/25 01:56:31;;;;;;;0.85;0.85;;;6.90;99.90;;;;;;5155113;27;20406;-70
2024/01/25 01:58:59;;;;;;;1.25;1.15;;;6.90;99.90;;;;;;5154835;27;20043;-70
2024/01/25 02:01:25;;;;;;;1.77;1.67;;;6.90;99.90;;;;;;5155058;27;20043;-69
2024/01/25 02:03:51;;;;;;;1.27;1.17;;;6.90;99.90;;;;;;5154988;27;20078;-69
2024/01/25 02:06:17;;;;;;;1.58;1.48;;;6.80;99.90;;;;;;5155079;27;20147;-69
2024/01/25 02:08:43;;;;;;;0.90;0.90;;;6.80;99.90;;;;;;5155021;27;20490;-70
2024/01/25 02:11:14;;;;;;;0.98;0.98;;;6.70;99.90;;;;;;5154931;27;20051;-68
2024/01/25 02:13:40;;;;;;;0.80;0.80;;;6.70;99.90;;;;;;5155043;27;20074;-70
2024/01/25 02:16:09;;;;;;;1.20;1.10;;;6.70;99.90;;;;;;5154860;27;20078;-69
2024/01/25 02:18:35;;;;;;;1.00;1.00;;;6.60;99.90;;;;;;5154915;27;20039;-69
2024/01/25 02:21:00;;;;;;;0.85;0.85;;;6.60;99.90;;;;;;5155169;27;20367;-69
2024/01/25 02:23:26;;;;;;;0.90;0.90;;;6.50;99.90;;;;;;5155049;27;20039;-71
2024/01/25 02:25:52;;;;;;;1.05;1.02;;;6.40;99.90;;;;;;5154667;27;20513;-70
2024/01/25 02:28:18;;;;;;;1.05;1.02;;;6.50;99.90;;;;;;5154810;27;20489;-69
2024/01/25 02:30:43;;;;;;;1.33;1.25;;;7.20;99.90;;;;;;5154860;27;20142;-69
2024/01/25 02:33:09;;;;;;;1.33;1.23;;;6.70;99.90;;;;;;5154760;27;20046;-70
2024/01/25 02:35:34;;;;;;;0.90;0.90;;;6.40;99.90;;;;;;5154712;27;20042;-70
2024/01/25 02:38:00;;;;;;;1.75;1.65;;;6.40;99.90;;;;;;5157380;27;20080;-69
2024/01/25 02:40:26;;;;;;;0.90;0.90;;;6.30;99.90;;;;;;5158562;27;20038;-69
2024/01/25 02:42:52;;;;;;;0.80;0.80;;;6.30;99.90;;;;;;5158398;27;20078;-69
2024/01/25 02:45:17;;;;;;;0.90;0.90;;;6.30;99.90;;;;;;5158423;27;20038;-69
2024/01/25 02:47:43;;;;;;;1.20;1.10;;;6.40;99.90;;;;;;5158404;27;20093;-69
2024/01/25 02:50:09;;;;;;;0.93;0.90;;;6.40;99.90;;;;;;5158378;27;20088;-69
2024/01/25 02:52:35;;;;;;;8.97;5.70;;;6.20;99.90;;;;;;5158690;27;20038;-70
2024/01/25 02:55:00;;;;;;;0.90;0.90;;;6.20;99.90;;;;;;5158352;27;20046;-69
2024/01/25 02:57:26;;;;;;;1.00;1.00;;;6.70;99.90;;;;;;5158242;27;20496;-69
2024/01/25 02:59:52;;;;;;;1.00;1.00;;;6.20;99.90;;;;;;5139881;27;20035;-69
2024/01/25 03:02:19;;;;;;;1.00;1.00;;;6.30;99.90;;;;;;5158063;27;20112;-69
2024/01/25 03:04:45;;;;;;;0.90;0.90;;;6.20;99.90;;;;;;5158197;27;20049;-70
2024/01/25 03:07:11;;;;;;;1.52;1.42;;;6.10;99.90;;;;;;5158065;27;20054;-69
2024/01/25 03:09:37;;;;;;;1.70;1.08;;;6.10;99.90;;;;;;5157845;27;20050;-69
2024/01/25 03:12:02;;;;;;;0.90;0.90;;;6.10;99.90;;;;;;5157959;27;20382;-69
2024/01/25 03:14:28;;;;;;;1.80;1.70;;;6.10;99.90;;;;;;5157966;27;20046;-68
2024/01/25 03:16:54;;;;;;;0.93;0.93;;;6.70;99.90;;;;;;5139758;27;20095;-69
2024/01/25 03:19:19;;;;;;;0.85;0.85;;;5.90;99.90;;;;;;5158270;27;20039;-70
2024/01/25 03:21:45;;;;;;;0.93;0.93;;;6.00;99.90;;;;;;5157752;27;20038;-69
2024/01/25 03:24:11;;;;;;;0.90;0.90;;;6.00;99.90;;;;;;5157707;27;20042;-69
2024/01/25 03:26:36;;;;;;;1.10;1.00;;;6.00;99.90;;;;;;5157631;27;20092;-70
2024/01/25 03:29:02;;;;;;;1.42;1.33;;;5.90;99.90;;;;;;5157298;27;20129;-69
2024/01/25 03:31:28;;;;;;;1.52;1.42;;;5.90;99.90;;;;;;5157637;27;20391;-69
2024/01/25 03:33:53;;;;;;;0.90;0.90;;;5.90;99.90;;;;;;5157481;27;20043;-69
2024/01/25 03:36:19;;;;;;;0.80;0.80;;;5.90;99.90;;;;;;5157485;27;20046;-70
2024/01/25 03:38:44;;;;;;;0.90;0.90;;;5.90;99.90;;;;;;5157464;27;20103;-69
2024/01/25 03:41:10;;;;;;;0.90;0.90;;;5.80;99.90;;;;;;5157424;27;20041;-70
2024/01/25 03:43:36;;;;;;;0.80;0.80;;;5.80;99.90;;;;;;5156963;27;20125;-69
2024/01/25 03:46:02;;;;;;;0.80;0.80;;;6.80;99.90;;;;;;5157259;27;20034;-69
2024/01/25 03:48:28;;;;;;;1.98;1.83;;;6.20;99.90;;;;;;5137991;27;20054;-69
2024/01/25 03:50:56;;;;;;;0.90;0.90;;;6.00;99.90;;;;;;5157057;27;20053;-69
2024/01/25 03:53:22;;;;;;;1.00;1.00;;;5.70;99.90;;;;;;5157204;27;20125;-69
2024/01/25 03:55:51;;;;;;;1.67;1.58;;;5.70;99.90;;;;;;5156702;27;20502;-69
2024/01/25 03:58:19;;;;;;;1.95;1.45;;;5.70;99.90;;;;;;5138790;27;20082;-70
2024/01/25 04:00:45;;;;;;;0.90;0.90;;;5.60;99.90;;;;;;5157209;27;20039;-69
2024/01/25 04:03:11;;;;;;;0.80;0.80;;;5.60;99.90;;;;;;5156859;27;20091;-69
2024/01/25 04:05:37;;;;;;;0.80;0.80;;;5.60;99.90;;;;;;5157162;27;20049;-69
2024/01/25 04:08:03;;;;;;;1.80;1.70;;;5.60;99.90;;;;;;5156539;27;20042;-69
2024/01/25 04:10:29;;;;;;;0.82;0.82;;;5.50;99.90;;;;;;5156766;27;20065;-69
2024/01/25 04:12:54;;;;;;;0.90;0.90;;;5.50;99.90;;;;;;5156506;27;20043;-70
2024/01/25 04:15:20;;;;;;;0.90;0.90;;;5.40;99.90;;;;;;5156715;27;20482;-70
2024/01/25 04:17:45;;;;;;;0.98;0.98;;;6.00;99.90;;;;;;5156718;27;20064;-70
2024/01/25 04:20:11;;;;;;;0.80;0.80;;;5.40;99.90;;;;;;5156477;27;20046;-69
2024/01/25 04:22:37;;;;;;;0.88;0.88;;;5.40;99.90;;;;;;5156805;27;20500;-69
2024/01/25 04:25:03;;;;;;;0.90;0.90;;;5.40;99.90;;;;;;5156477;27;20129;-69
2024/01/25 04:27:28;;;;;;;0.80;0.80;;;5.30;99.90;;;;;;5156127;27;20054;-70
2024/01/25 04:29:54;;;;;;;0.90;0.90;;;5.30;99.90;;;;;;5156353;27;20046;-70
2024/01/25 04:32:19;;;;;;;0.80;0.80;;;5.30;99.90;;;;;;5138599;27;20046;-69
2024/01/25 04:34:47;;;;;;;1.10;1.00;;;5.30;99.90;;;;;;5156331;27;20046;-69
2024/01/25 04:37:13;;;;;;;0.90;0.90;;;5.20;99.90;;;;;;5137766;27;20047;-69
2024/01/25 04:39:39;;;;;;;0.90;0.90;;;5.20;99.90;;;;;;5155981;27;20042;-69
2024/01/25 04:42:05;;;;;;;0.80;0.80;;;5.20;99.90;;;;;;5137903;27;20043;-69
2024/01/25 04:44:31;;;;;;;1.27;1.17;;;5.20;99.90;;;;;;5155858;27;20366;-69
2024/01/25 04:46:56;;;;;;;0.80;0.80;;;5.20;99.90;;;;;;5156206;27;20095;-70
2024/01/25 04:49:22;;;;;;;0.80;0.80;;;5.10;99.90;;;;;;5155960;27;20046;-69
2024/01/25 04:51:48;;;;;;;0.90;0.90;;;5.10;99.90;;;;;;5155649;27;20054;-69
2024/01/25 04:54:15;;;;;;;0.90;0.90;;;6.50;99.90;;;;;;5156106;27;20118;-70
2024/01/25 04:56:41;;;;;;;1.30;1.20;;;5.10;99.90;;;;;;5155941;27;20046;-69
2024/01/25 04:59:07;;;;;;;1.38;1.27;;;5.00;99.90;;;;;;5155911;27;20386;-69
2024/01/25 05:01:33;;;;;;;0.80;0.80;;;5.00;99.90;;;;;;5155572;27;20103;-70
2024/01/25 05:03:59;;;;;;;0.90;0.90;;;5.00;99.90;;;;;;5155691;27;20076;-69
2024/01/25 05:06:25;;;;;;;1.00;0.90;;;4.90;99.90;;;;;;5156195;27;20046;-70
2024/01/25 05:08:51;;;;;;;1.05;1.00;;;4.90;99.90;;;;;;5155603;27;20049;-69
2024/01/25 05:11:17;;;;;;;1.10;1.00;;;4.90;99.90;;;;;;5155487;27;20490;-69
2024/01/25 05:13:43;;;;;;;0.93;0.93;;;4.80;99.90;;;;;;5155699;27;20402;-70
2024/01/25 05:16:08;;;;;;;1.02;1.00;;;4.80;99.90;;;;;;5155613;27;20054;-68
2024/01/25 05:18:34;;;;;;;1.05;1.00;;;4.80;99.90;;;;;;5137061;27;20054;-70
2024/01/25 05:21:00;;;;;;;0.90;0.90;;;4.70;99.90;;;;;;5155555;27;20109;-69
2024/01/25 05:23:26;;;;;;;0.90;0.90;;;4.70;99.90;;;;;;5155254;27;20144;-69
2024/01/25 05:25:52;;;;;;;1.00;1.00;;;4.70;99.90;;;;;;5155404;27;20170;-69
2024/01/25 05:28:17;;;;;;;0.90;0.90;;;4.70;99.90;;;;;;5155714;27;20558;-69
2024/01/25 05:30:43;;;;;;;0.90;0.90;;;4.60;99.90;;;;;;5155467;27;20112;-69
2024/01/25 05:33:09;;;;;;;1.02;1.00;;;4.60;99.90;;;;;;5155300;27;20038;-69
2024/01/25 05:35:34;;;;;;;0.90;0.90;;;4.60;99.90;;;;;;5155321;27;20043;-68
2024/01/25 05:38:00;;;;;;;1.30;1.20;;;4.60;99.90;;;;;;5154253;27;20502;-70
2024/01/25 05:40:26;;;;;;;1.10;1.00;;;4.60;99.90;;;;;;5151633;27;20123;-69
2024/01/25 05:42:51;;;;;;;0.90;0.90;;;4.60;99.90;;;;;;5154659;27;20113;-70
2024/01/25 05:45:20;;;;;;;0.90;0.90;;;4.90;99.90;;;;;;5154633;27;20034;-69
2024/01/25 05:47:46;;;;;;;0.90;0.90;;;4.50;99.90;;;;;;5154866;27;20047;-69
2024/01/25 05:50:12;;;;;;;0.90;0.90;;;4.50;99.90;;;;;;5154948;27;20566;-68
2024/01/25 05:52:37;;;;;;;1.10;1.00;;;4.40;99.90;;;;;;5154299;27;20054;-71
2024/01/25 05:55:06;;;;;;;1.10;1.00;;;4.40;99.90;;;;;;5153914;27;20051;-72
2024/01/25 05:57:32;;;;;;;1.50;1.40;;;4.40;99.90;;;;;;5154835;27;20043;-68
2024/01/25 05:59:58;;;;;;;1.10;1.00;;;4.30;99.90;;;;;;5154741;27;20140;-69
2024/01/25 06:02:23;;;;;;;1.10;1.00;;;5.50;99.90;;;;;;5154936;27;20087;-70
2024/01/25 06:04:49;;;;;;;1.10;1.00;;;4.40;99.90;;;;;;5155275;27;20042;-69
2024/01/25 06:07:15;;;;;;;0.90;0.90;;;4.40;99.90;;;;;;5155260;27;20364;-70
2024/01/25 06:09:40;;;;;;;0.90;0.90;;;4.30;99.90;;;;;;5136573;27;20481;-68
2024/01/25 06:12:06;;;;;;;0.90;0.90;;;4.30;99.90;;;;;;5156276;27;20047;-72
2024/01/25 06:14:32;;;;;;;1.10;1.00;;;4.30;99.90;;;;;;5159036;27;20039;-71
2024/01/25 06:16:58;;;;;;;3.30;2.25;;;4.30;99.90;;;;;;5159173;27;20046;-73
2024/01/25 06:19:23;;;;;;;1.30;1.20;;;4.30;99.90;;;;;;5159076;27;20088;-69
2024/01/25 06:21:50;;;;;;;0.90;0.90;;;4.30;99.90;;;;;;5158919;27;20083;-70
2024/01/25 06:24:15;;;;;;;1.10;1.00;;;4.20;99.90;;;;;;5158862;27;20479;-70
2024/01/25 06:26:41;;;;;;;0.90;0.90;;;4.20;99.90;;;;;;5140311;27;20047;-69
2024/01/25 06:29:07;;;;;;;1.05;0.95;;;4.20;99.90;;;;;;5158751;27;20439;-68
2024/01/25 06:31:32;;;;;;;0.93;0.93;;;4.20;99.90;;;;;;5157104;27;20050;-70
2024/01/25 06:33:58;;;;;;;1.10;1.00;;;4.20;99.90;;;;;;5156712;27;20649;-70
2024/01/25 06:36:23;;;;;;;1.30;1.20;;;4.50;99.90;;;;;;5156564;27;20389;-76
2024/01/25 06:38:49;;;;;;;1.00;1.00;;;4.20;99.90;;;;;;5158396;27;20050;-71
2024/01/25 06:41:17;;;;;;;1.10;1.00;;;4.20;99.90;;;;;;5158085;27;20446;-68
2024/01/25 06:43:43;;;;;;;1.00;1.00;;;4.20;99.90;;;;;;5158227;27;20035;-68
2024/01/25 06:46:09;;;;;;;1.10;1.00;;;4.20;99.90;;;;;;5158224;27;20046;-69
2024/01/25 06:48:35;;;;;;;1.05;1.00;;;4.20;99.90;;;;;;5158389;27;20042;-68
2024/01/25 06:51:01;;;;;;;1.02;1.00;;;4.20;99.90;;;;;;5139850;27;20094;-69
2024/01/25 06:53:27;;;;;;;1.30;1.20;;;4.10;99.90;;;;;;5158177;27;20096;-72
2024/01/25 06:55:53;;;;;;;0.97;0.97;;;4.10;99.90;;;;;;5158199;27;20049;-69
2024/01/25 06:58:18;;;;;;;1.15;1.05;;;4.10;99.90;;;;;;5157999;27;20276;-72
2024/01/25 07:00:46;;;;;;;0.90;0.90;;;4.10;99.90;;;;;;5158560;27;20039;-68
2024/01/25 07:03:12;;;;;;;1.40;1.30;;;4.00;99.90;;;;;;5157991;27;20047;-70
2024/01/25 07:05:38;;;;;;;1.10;1.00;;;4.00;99.90;;;;;;5158192;27;20043;-76
2024/01/25 07:08:04;;;;;;;0.93;0.93;;;4.00;99.90;;;;;;5158095;27;20500;-71
2024/01/25 07:10:29;;;;;;;1.10;1.00;;;4.00;99.90;;;;;;5157700;27;20078;-70
2024/01/25 07:12:55;;;;;;;1.10;1.00;;;4.00;99.90;;;;;;5157870;27;20379;-69
2024/01/25 07:15:21;;;;;;;1.00;1.00;;;4.00;99.90;;;;;;5122062;27;20122;-70
2024/01/25 07:17:46;;;;;;;1.08;1.00;;;4.00;99.90;;;;;;5157906;27;20038;-70
2024/01/25 07:20:12;;;;;;;0.90;0.90;;;3.90;99.90;;;;;;5157689;27;20055;-69
2024/01/25 07:22:38;;;;;;;1.10;1.00;;;3.90;99.90;;;;;;5157663;27;20046;-71
2024/01/25 07:25:04;;;;;;;1.10;1.00;;;3.80;99.90;;;;;;5157564;27;20082;-69
2024/01/25 07:27:30;;;;;;;1.73;1.10;;;3.80;99.90;;;;;;5157492;27;20057;-71
2024/01/25 07:29:56;;;;;;;1.00;0.93;;;3.80;99.90;;;;;;5157617;27;20042;-67
2024/01/25 07:32:24;;;;;;;1.10;1.00;;;3.80;99.90;;;;;;5157657;27;20087;-69
2024/01/25 07:34:50;;;;;;;1.10;1.00;;;3.80;99.90;;;;;;5157413;27;20121;-73
2024/01/25 07:37:16;;;;;;;1.10;1.00;;;3.70;99.90;;;;;;5157306;27;20127;-69
2024/01/25 07:39:41;;;;;;;1.00;0.93;;;3.70;99.90;;;;;;5157458;27;20117;-69
2024/01/25 07:42:07;;;;;;;1.15;1.05;;;3.70;99.90;;;;;;5157207;27;20051;-71
2024/01/25 07:44:32;;;;;;;1.10;1.00;;;3.70;99.90;;;;;;5157692;27;20075;-72
2024/01/25 07:46:58;;;;;;;1.10;1.00;;;3.60;99.90;;;;;;5157322;27;20038;-71
2024/01/25 07:49:24;;;;;;;1.10;1.00;;;3.60;99.90;;;;;;5157536;27;20043;-70
2024/01/25 07:51:49;;;;;;;2.55;2.35;;;3.50;99.90;;;;;;5156835;27;20565;-71
2024/01/25 07:54:15;;;;;;;1.20;1.10;;;3.50;99.90;;;;;;5157056;27;20069;-70
2024/01/25 07:56:41;;;;;;;1.20;1.10;;;3.50;99.90;;;;;;5138530;27;20074;-72
2024/01/25 07:59:07;;;;;;;1.10;1.00;;;3.50;99.90;;;;;;5157187;27;20077;-69
2024/01/25 08:01:32;;;;;;;1.08;0.98;;;3.50;99.90;;;;;;5156941;27;20470;-72
2024/01/25 08:03:59;;;;;;;1.10;1.00;;;3.50;99.90;;;;;;5156928;27;20390;-71
2024/01/25 08:06:26;;;;;;;1.15;1.05;;;3.50;99.90;;;;;;5157059;27;20423;-71
2024/01/25 08:08:51;;;;;;;1.20;1.10;;;3.50;99.90;;;;;;5156482;27;20508;-70
2024/01/25 08:11:19;;;;;;;1.65;1.55;;;3.50;99.90;;;;;;5156669;27;20042;-69
2024/01/25 08:13:45;;;;;;;1.13;1.02;;;3.50;99.90;;;;;;5156749;27;20077;-67
2024/01/25 08:16:12;;;;;;;1.10;1.00;;;3.50;99.90;;;;;;5156684;27;20064;-67
2024/01/25 08:18:37;;;;;;;1.50;1.42;;;3.50;99.90;;;;;;5156589;27;20502;-73
2024/01/25 08:21:03;;;;;;;1.10;1.00;;;3.60;99.90;;;;;;5156501;27;20039;-70
2024/01/25 08:23:29;;;;;;;1.00;1.00;;;3.60;99.90;;;;;;5156595;27;20042;-69
2024/01/25 08:25:54;;;;;;;1.20;1.10;;;3.60;99.90;;;;;;5156559;27;20390;-68
2024/01/25 08:28:21;;;;;;;0.98;0.90;;;3.70;99.90;;;;;;5156378;27;20053;-66
2024/01/25 08:30:47;;;;;;;1.10;1.00;;;3.70;99.90;;;;;;5156660;27;20039;-70
2024/01/25 08:33:13;;;;;;;1.20;1.10;;;3.70;99.90;;;;;;5156234;27;20049;-73
2024/01/25 08:35:40;;;;;;;1.00;1.00;;;3.70;99.90;;;;;;5155821;27;20083;-72
2024/01/25 08:38:06;;;;;;;;;;;3.80;99.90;;;;;;5137829;27;20042;-66
2024/01/25 08:40:32;;;;;;;1.10;1.00;;;3.80;99.90;;;;;;5156018;27;19926;-68
2024/01/25 08:42:58;;;;;;;1.23;1.13;;;3.80;99.90;;;;;;5154877;27;20047;-71
2024/01/25 08:45:24;;;;;;;1.10;1.00;;;3.80;99.90;;;;;;5154300;27;20043;-69
2024/01/25 08:47:51;;;;;;;1.10;1.00;;;3.90;99.90;;;;;;5154948;27;20049;-70
2024/01/25 08:50:16;;;;;;;1.85;1.65;;;3.90;99.90;;;;;;5154748;27;20042;-69
2024/01/25 08:52:42;;;;;;;1.10;1.00;;;3.90;99.90;;;;;;5155573;27;20471;-72
2024/01/25 08:55:09;;;;;;;1.20;1.10;;;3.90;99.90;;;;;;5155313;27;20055;-69
2024/01/25 08:57:35;;;;;;;1.10;1.00;;;3.90;99.90;;;;;;5155481;27;20047;-70
2024/01/25 09:00:01;;;;;;;1.20;1.10;;;4.10;99.90;;;;;;5155260;27;20083;-69
2024/01/25 09:02:29;;;;;;;1.10;1.00;;;4.00;99.90;;;;;;5155942;27;20049;-74
2024/01/25 09:04:55;;;;;;;1.10;1.00;;;4.10;99.90;;;;;;5155844;27;20489;-69
2024/01/25 09:07:21;;;;;;;1.20;1.10;;;4.10;99.90;;;;;;5155766;27;20043;-70
2024/01/25 09:09:47;;;;;;;1.10;1.00;;;4.10;99.90;;;;;;5155740;27;20091;-76
2024/01/25 09:12:14;;;;;;;1.10;1.00;;;4.10;99.90;;;;;;5155706;27;20401;-74
2024/01/25 09:14:40;;;;;;;1.10;1.00;;;4.20;99.90;;;;;;5155490;27;20092;-73
2024/01/25 09:17:05;;;;;;;1.20;1.10;;;4.20;99.90;;;;;;5155663;27;20086;-69
2024/01/25 09:19:31;;;;;;;2.22;1.42;;;4.20;99.90;;;;;;5155559;27;20147;-70
2024/01/25 09:21:59;;;;;;;1.10;1.00;;;4.30;99.90;;;;;;5155376;27;20062;-70
2024/01/25 09:24:25;;;;;;;1.13;1.02;;;4.30;99.90;;;;;;5155604;27;20042;-71
2024/01/25 09:26:51;;;;;;;1.10;1.00;;;4.40;99.90;;;;;;5155692;27;20125;-72
2024/01/25 09:29:16;;;;;;;1.10;1.00;;;4.40;99.90;;;;;;5155420;27;20042;-72
2024/01/25 09:31:42;;;;;;;1.10;1.00;;;4.40;99.90;;;;;;5155404;27;20042;-72
2024/01/25 09:34:07;;;;;;;1.20;1.10;;;4.50;99.90;;;;;;5155275;27;20046;-71
2024/01/25 09:36:33;;;;;;;1.10;1.00;;;4.60;99.90;;;;;;5155075;27;20042;-70
2024/01/25 09:38:59;;;;;;;1.10;1.00;;;4.60;99.90;;;;;;5155187;27;20462;-72
2024/01/25 09:41:24;;;;;;;1.20;1.10;;;4.70;99.90;;;;;;5155945;27;20047;-70
2024/01/25 09:43:50;;;;;;;1.10;1.00;;;4.70;99.90;;;;;;5155197;27;20068;-70
2024/01/25 09:46:16;;;;;;;1.40;1.30;;;4.80;99.90;;;;;;5155339;27;20481;-69
2024/01/25 09:48:43;;;;;;;1.20;1.10;;;4.80;99.90;;;;;;5159149;27;20053;-72
2024/01/25 09:51:11;;;;;;;1.08;1.00;;;4.90;99.90;;;;;;5159250;27;20051;-73
2024/01/25 09:53:39;;;;;;;1.10;1.00;;;4.90;99.90;;;;;;5159536;27;20392;-75
2024/01/25 09:56:10;;;;;;;1.10;1.00;;;5.00;99.90;;;;;;5159804;27;20436;-69
2024/01/25 09:58:42;;;;;;;1.05;1.00;;;5.00;99.90;;;;;;5159430;27;20038;-70
2024/01/25 10:01:10;;;;;;;1.10;1.00;;;5.10;99.90;;;;;;5159415;27;20117;-71
2024/01/25 10:03:36;;;;;;;1.25;1.15;;;5.40;99.90;;;;;;5159248;27;20038;-73
2024/01/25 10:06:03;;;;;;;0.90;0.90;;;5.20;99.90;;;;;;5159213;27;20050;-72
2024/01/25 10:08:29;;;;;;;2.80;1.88;;;5.20;99.90;;;;;;5159258;27;20038;-73
2024/01/25 10:10:55;;;;;;;1.05;0.95;;;5.30;99.90;;;;;;5159134;27;20164;-70
2024/01/25 10:13:21;;;;;;;1.10;1.00;;;5.30;99.90;;;;;;5159240;27;20485;-73
2024/01/25 10:15:48;;;;;;;1.10;1.00;;;5.30;99.90;;;;;;5159130;27;20046;-71
2024/01/25 10:18:14;;;;;;;1.10;1.00;;;5.30;99.90;;;;;;5159058;27;20366;-70
2024/01/25 10:20:42;;;;;;;1.10;1.00;;;5.40;99.90;;;;;;5158766;27;20078;-72
2024/01/25 10:23:07;;;;;;;1.00;1.00;;;5.40;99.90;;;;;;5140787;27;20039;-69
2024/01/25 10:25:35;;;;;;;1.00;0.90;;;5.40;99.90;;;;;;5158931;27;20072;-71
2024/01/25 10:28:04;;;;;;;1.30;1.20;;;5.50;99.90;;;;;;5158884;27;20043;-72
2024/01/25 10:30:35;;;;;;;0.90;0.90;;;5.50;99.90;;;;;;5158968;27;20546;-69
2024/01/25 10:33:01;;;;;;;1.05;1.00;;;5.50;99.90;;;;;;5158842;27;20034;-71
2024/01/25 10:35:27;;;;;;;1.10;1.00;;;5.90;99.90;;;;;;5158734;27;20449;-69
2024/01/25 10:37:54;;;;;;;1.10;1.00;;;5.60;99.90;;;;;;5158706;27;20060;-71
2024/01/25 10:40:20;;;;;;;1.10;1.00;;;5.70;99.90;;;;;;5158543;27;20475;-73
2024/01/25 10:42:47;;;;;;;2.20;2.10;;;5.70;99.90;;;;;;5158181;27;20474;-71
2024/01/25 10:45:12;;;;;;;1.10;1.00;;;5.70;99.90;;;;;;5158491;27;20039;-71
2024/01/25 10:47:40;;;;;;;0.90;0.90;;;5.70;99.90;;;;;;5158477;27;20053;-74
2024/01/25 10:50:09;;;;;;;0.90;0.90;;;5.80;99.90;;;;;;5158050;27;20133;-67
2024/01/25 10:52:35;;;;;;;1.73;1.63;;;5.80;99.90;;;;;;5158417;27;20075;-73
2024/01/25 10:55:03;;;;;;;0.90;0.90;;;6.00;99.90;;;;;;5158254;27;20129;-68
2024/01/25 10:57:39;;;;;;;1.90;1.55;;;6.00;99.90;;;;;;5139548;27;20054;-71
2024/01/25 11:00:11;;;;;;;0.90;0.90;;;5.90;99.90;;;;;;5158285;27;20050;-69
2024/01/25 11:02:39;;;;;;;0.82;0.82;;;6.00;99.90;;;;;;5139495;27;20401;-68
2024/01/25 11:05:10;;;;;;;1.20;1.10;;;6.00;99.90;;;;;;5158110;27;20050;-68
2024/01/25 11:07:43;;;;;;;8.68;3.28;;;6.10;99.90;;;;;;5158109;27;20046;-71
2024/01/25 11:10:19;;;;;;;0.90;0.90;;;6.20;99.90;;;;;;5157913;27;20123;-66
2024/01/25 11:12:59;;;;;;;0.90;0.90;;;6.30;99.90;;;;;;5158103;27;20046;-69
2024/01/25 11:15:36;;;;;;;2.65;1.38;;;6.70;99.90;;;;;;5139208;27;20482;-70
2024/01/25 11:18:03;;;;;;;1.25;1.15;;;6.50;99.90;;;;;;5158307;27;20363;-70
2024/01/25 11:20:30;;;;;;;0.90;0.90;;;6.60;99.90;;;;;;5157412;27;20466;-75
2024/01/25 11:23:02;;;;;;;1.45;1.35;;;6.70;99.90;;;;;;5157461;27;20043;-68
2024/01/25 11:25:32;;;;;;;0.90;0.90;;;6.80;99.90;;;;;;5157588;27;20035;-75
2024/01/25 11:27:58;;;;;;;2.05;1.95;;;7.20;99.90;;;;;;5158046;27;20043;-69
2024/01/25 11:30:25;;;;;;;0.90;0.90;;;7.00;99.90;;;;;;5157156;27;20105;-68
2024/01/25 11:32:51;;;;;;;;;;;7.30;99.90;;;;;;5156019;27;20382;-69
2024/01/25 11:35:17;;;;;;;1.00;0.95;;;7.10;99.90;;;;;;5155461;27;19919;-70
2024/01/25 11:37:46;;;;;;;2.38;2.00;;;7.10;99.90;;;;;;5155790;27;20109;-71
2024/01/25 11:40:14;;;;;;;3.10;2.90;;;7.20;99.90;;;;;;5155675;27;20031;-70
2024/01/25 11:42:42;;;;;;;1.73;1.63;;;7.30;99.90;;;;;;5155490;27;20082;-70
2024/01/25 11:45:11;;;;;;;0.90;0.90;;;7.30;99.90;;;;;;5155759;27;20485;-71
2024/01/25 11:47:38;;;;;;;0.90;0.90;;;8.10;99.90;;;;;;5138472;27;20095;-71
2024/01/25 11:50:06;;;;;;;1.52;1.42;;;7.50;99.90;;;;;;5154326;27;20391;-71
2024/01/25 11:52:33;;;;;;;0.90;0.90;;;7.50;99.90;;;;;;5147135;27;20580;-68
2024/01/25 11:55:03;;;;;;;0.90;0.90;;;8.40;99.90;;;;;;5157043;27;20034;-68
2024/01/25 11:57:32;;;;;;;0.98;0.98;;;7.60;99.90;;;;;;5156672;27;20558;-69
2024/01/25 11:59:58;;;;;;;2.55;1.38;;;7.50;99.90;;;;;;5156580;27;20371;-69
2024/01/25 12:02:25;;;;;;;3.92;3.53;;;7.60;99.90;;;;;;5156895;27;20042;-68
2024/01/25 12:04:53;;;;;;;1.10;1.00;;;7.60;99.90;;;;;;5156546;27;20074;-70
2024/01/25 12:07:20;;;;;;;1.55;1.45;;;7.60;99.90;;;;;;5156446;27;20048;-70
2024/01/25 12:09:56;;;;;;;1.38;1.33;;;7.60;99.90;;;;;;5155807;27;20054;-70
2024/01/25 12:12:22;;;;;;;0.90;0.90;;;7.70;99.90;;;;;;5156433;27;20089;-69
2024/01/25 12:14:48;;;;;;;1.08;0.98;;;7.60;99.90;;;;;;5156534;27;20053;-70
2024/01/25 12:17:13;;;;;;;3.42;1.52;;;7.60;99.90;;;;;;5155952;27;20042;-70
2024/01/25 12:19:39;;;;;;;2.85;1.42;;;7.80;99.90;;;;;;5156574;27;20102;-69
2024/01/25 12:22:04;;;;;;;0.98;0.98;;;7.80;99.90;;;;;;5156155;27;20386;-69
2024/01/25 12:24:31;;;;;;;0.88;0.88;;;7.60;99.90;;;;;;5156299;27;20385;-69
2024/01/25 12:26:56;;;;;;;0.90;0.90;;;7.60;99.90;;;;;;5156376;27;20092;-70
2024/01/25 12:29:23;;;;;;;0.90;0.90;;;7.60;99.90;;;;;;5156191;27;20482;-70
2024/01/25 12:31:48;;;;;;;0.90;0.90;;;7.60;99.90;;;;;;5156398;27;20074;-69
2024/01/25 12:34:17;;;;;;;0.90;0.90;;;7.60;99.90;;;;;;5156002;27;20054;-70
2024/01/25 12:36:43;;;;;;;0.93;0.93;;;7.60;99.90;;;;;;5155733;27;20512;-70
2024/01/25 12:39:08;;;;;;;0.90;0.90;;;7.70;99.90;;;;;;5152621;27;20121;-69
2024/01/25 12:41:35;;;;;;;1.75;1.25;;;7.70;99.90;;;;;;5155339;27;20656;-71
2024/01/25 12:44:01;;;;;;;0.90;0.90;;;7.60;99.90;;;;;;5157287;27;20075;-70
2024/01/25 12:46:26;;;;;;;1.58;1.48;;;8.10;99.90;;;;;;5156160;27;20038;-70
2024/01/25 12:48:54;;;;;;;20.73;5.28;;;7.80;99.90;;;;;;5166393;27;20055;-68
2024/01/25 12:51:21;;;;;;;0.90;0.90;;;7.80;99.90;;;;;;5123669;27;20512;-68
2024/01/25 12:53:48;;;;;;;1.55;1.45;;;8.60;99.90;;;;;;5124074;27;20046;-70